Estación de San Rafael

Ultimos registro cada 15 minutos 89
Estación Fecha / Hora Temperatura Humedad Lluvia Velocidad Dirección Radiación Presion
89 San Rafael 02-09-2026 22:00 10,9 96,2 0 0 156 0,6 1003,8
88 San Rafael 02-09-2026 21:45 11 95,7 0 0 156 0,6 1003,9
87 San Rafael 02-09-2026 21:30 11,3 95,2 0 0 156 0,6 1003,7
86 San Rafael 02-09-2026 21:15 11,6 94,7 0 0 156 0,6 1003,5
85 San Rafael 02-09-2026 21:00 11,8 93,7 0 0 156 0,6 1003,4
84 San Rafael 02-09-2026 20:45 11,9 92,8 0 0 156 0,6 1003,4
83 San Rafael 02-09-2026 20:30 12,1 92,1 0 0 156 0,6 1003,4
82 San Rafael 02-09-2026 20:15 12,3 92 0 0 156 0,6 1003,2
81 San Rafael 02-09-2026 20:00 12,2 91,3 0 0 156 0,6 1002,9
80 San Rafael 02-09-2026 19:45 12,5 90,5 0 0 156 0,6 1002,9
79 San Rafael 02-09-2026 19:30 12,8 89,9 0 0 156 0,6 1002,8
78 San Rafael 02-09-2026 19:15 13 89,7 0 0 156 0,6 1002,7
77 San Rafael 02-09-2026 19:00 13,1 89,4 0 0 156 0,6 1002,8
76 San Rafael 02-09-2026 18:45 13,2 88,9 0 0 156 0,6 1002,5
75 San Rafael 02-09-2026 18:30 13,3 87,7 0 0 159 0,6 1002,3
74 San Rafael 02-09-2026 18:15 13,6 86,3 0 0 160 14,4 1002
73 San Rafael 02-09-2026 18:00 13,7 85 0 0 161 23,1 1001,9
72 San Rafael 02-09-2026 17:45 13,9 84,1 0 0,5 143 26,9 1002
71 San Rafael 02-09-2026 17:30 14,1 82,7 0 0 139 61,9 1001,5
70 San Rafael 02-09-2026 17:15 14,2 82,2 0 0 131 55,6 1001,4
69 San Rafael 02-09-2026 17:00 14,4 80,1 0 0 108 94,4 1000,8
68 San Rafael 02-09-2026 16:45 14,6 80,4 0 0,5 110 69,4 1000,8
67 San Rafael 02-09-2026 16:30 14,6 80,2 0 0 154 90,6 1000,6
66 San Rafael 02-09-2026 16:15 14,6 79,2 0 0,5 154 71,9 1000,9
65 San Rafael 02-09-2026 16:00 14,8 78,5 0 0,5 147 96,9 1000,9
64 San Rafael 02-09-2026 15:45 14,7 77,2 0 0,5 131 65,6 1000,8
63 San Rafael 02-09-2026 15:30 14,8 77,4 0 0 126 90,6 1000,4
62 San Rafael 02-09-2026 15:15 15,1 77,4 0 0 126 110,6 1000,3
61 San Rafael 02-09-2026 15:00 14,9 76,5 0 0 164 144,4 1000,2
60 San Rafael 02-09-2026 14:45 15,2 76,6 0 0,5 161 206,9 1000,2
59 San Rafael 02-09-2026 14:30 14,8 76,3 0 0,5 156 100,6 1000,5
58 San Rafael 02-09-2026 14:15 15,1 77,8 0 0,5 140 146,9 1000,4
57 San Rafael 02-09-2026 14:00 15,2 74,3 0 1 147 143,1 1000,4
56 San Rafael 02-09-2026 13:45 15,7 73,2 0 0,5 156 291,9 1000,3
55 San Rafael 02-09-2026 13:30 15,6 73,6 0 0,5 128 275,6 1000,3
54 San Rafael 02-09-2026 13:15 15,4 72,8 0 1 160 283,1 1000,4
53 San Rafael 02-09-2026 13:00 15,4 75 0 1 164 293,1 1000,5
52 San Rafael 02-09-2026 12:45 15,6 73,6 0 1,5 159 215,6 1000,6
51 San Rafael 02-09-2026 12:30 16,4 69,4 0 0 244 240,6 1000,7
50 San Rafael 02-09-2026 12:15 16,5 70,3 0 0 275 368,1 1000,6
49 San Rafael 02-09-2026 12:00 15,8 70,6 0 0 275 340,6 1000,7
48 San Rafael 02-09-2026 11:45 15,5 70 0 0 275 253,1 1000,7
47 San Rafael 02-09-2026 11:30 15,8 68,9 0 0 275 276,9 1000,5
46 San Rafael 02-09-2026 11:15 15,7 72,9 0 0 213 264,4 1000,4
45 San Rafael 02-09-2026 11:00 15,1 74,7 0 0 222 355,6 1000,2
44 San Rafael 02-09-2026 10:45 14,6 76,3 0 0 226 305,6 1000,4
43 San Rafael 02-09-2026 10:30 14,2 76,7 0 0 226 249,4 1000,4
42 San Rafael 02-09-2026 10:15 13,8 79,8 0 0 225 205,6 1000,4
41 San Rafael 02-09-2026 10:00 13,7 80,7 0 0 223 170,6 1000,5
40 San Rafael 02-09-2026 09:45 13,6 82,8 0 0 223 235,6 1000,3
39 San Rafael 02-09-2026 09:30 13,1 83 0 0 225 214,4 1000,8
38 San Rafael 02-09-2026 09:15 12,8 88,4 0 0 225 218,1 1000,4
37 San Rafael 02-09-2026 09:00 11,8 90,8 0 0,5 205 146,9 1000,5
36 San Rafael 02-09-2026 08:45 11,5 91,9 0 0 163 93,1 1000,8
35 San Rafael 02-09-2026 08:30 11,1 92,6 0 0 157 91,9 1000,4
34 San Rafael 02-09-2026 08:15 10,7 92,7 0 0 157 50,6 1000,4
33 San Rafael 02-09-2026 08:00 10,7 92,5 0 0 157 34,4 1000,6
32 San Rafael 02-09-2026 07:45 10,5 92,2 0 0 156 23,1 1000,6
31 San Rafael 02-09-2026 07:30 10,6 91,5 0 0 154 15,6 1000,4
30 San Rafael 02-09-2026 07:15 10,7 90,7 0 0 154 3,1 1000
29 San Rafael 02-09-2026 07:00 10,8 90,7 0 0 154 0,6 999,9
28 San Rafael 02-09-2026 06:45 10,8 89,8 0 0 159 0,6 1000,2
27 San Rafael 02-09-2026 06:30 10,9 91,5 0 0 191 0,6 1000
26 San Rafael 02-09-2026 06:15 10,4 92,6 0 0 191 0,6 1000
25 San Rafael 02-09-2026 06:00 10,4 92,7 0 0 191 0,6 999,7
24 San Rafael 02-09-2026 05:45 10,4 93,6 0 0 191 0,6 999,5
23 San Rafael 02-09-2026 05:30 10,1 93,4 0 0 191 0,6 999
22 San Rafael 02-09-2026 05:15 10,3 92,9 0 0 191 0,6 998,8
21 San Rafael 02-09-2026 05:00 10,5 92,2 0 0 191 0,6 999
20 San Rafael 02-09-2026 04:45 10,7 91,4 0 0 191 0,6 998,7
19 San Rafael 02-09-2026 04:30 10,9 90,5 0 0 191 0,6 999
18 San Rafael 02-09-2026 04:15 11,1 89,1 0 0 191 0,6 999,3
17 San Rafael 02-09-2026 04:00 11,2 87,2 0 0 191 0,6 999
16 San Rafael 02-09-2026 03:45 11,4 84 0 0 191 0,6 998,9
15 San Rafael 02-09-2026 03:30 11,6 83,1 0 0 192 0,6 999,1
14 San Rafael 02-09-2026 03:15 11,8 83,1 0 0 201 0,6 999,2
13 San Rafael 02-09-2026 03:00 12 83 0 0 202 0,6 999,4
12 San Rafael 02-09-2026 02:45 12,1 83,1 0 0 201 0,6 999,6
11 San Rafael 02-09-2026 02:30 12 82,8 0 0 194 0,6 999,8
10 San Rafael 02-09-2026 02:15 12 82,3 0 0 194 0,6 999,7
9 San Rafael 02-09-2026 02:00 12,1 83,5 0 0 187 0,6 999,8
8 San Rafael 02-09-2026 01:45 11,6 86 0 0 185 0,6 999,7
7 San Rafael 02-09-2026 01:30 11,7 84,2 0 0 185 0,6 999,9
6 San Rafael 02-09-2026 01:15 12 83,2 0 0 185 0,6 999,8
5 San Rafael 02-09-2026 01:00 12,5 81,4 0 0 185 0,6 1000,1
4 San Rafael 02-09-2026 00:45 12,5 81,4 0 0 185 0,6 999,9
3 San Rafael 02-09-2026 00:30 13,2 78,8 0 0 187 0,6 999,8
2 San Rafael 02-09-2026 00:15 13,5 80,5 0 0 188 0,6 1000,2
1 San Rafael 02-09-2026 00:00 13,7 79 0 0 188 0,6 1000,2